Terminal Aerodrome Forecast
Issued by NWS

Home | Current Version | Previous Version | Text Only | Print | Product List | Glossary On
Versions: 1 2 3 4 5 6 7 8 9 10 11 12 13 14 15 16 17 18 19 20 21 22 23 24 25
000
FTUS42 KRAH 172201 AAE
TAFINT
TAF AMD
KINT 172201Z 1722/1818 35012G20KT 5SM -SN BR SCT010 BKN035 OVC040
      TEMPO 1722/1724 2SM -SN BR SCT015 OVC030
     FM180000 35009KT 5SM -SN BR SCT015 OVC030
     FM180100 34009KT P6SM BKN050
     FM180600 30006KT P6SM SKC=

USA.gov is the U.S. government's official web portal to all federal, state and local government web resources and services.